createdAt,value
2022-08-26T00:00:26.404Z,3.97
2022-08-26T00:02:53.041Z,5.50
2022-08-26T00:05:19.270Z,5.88
2022-08-26T00:07:45.444Z,4.47
2022-08-26T00:10:11.618Z,4.55
2022-08-26T00:12:37.909Z,3.90
2022-08-26T00:15:04.161Z,4.45
2022-08-26T00:17:30.335Z,4.60
2022-08-26T00:19:56.510Z,4.30
2022-08-26T00:22:22.662Z,4.53
2022-08-26T00:24:49.006Z,4.72
2022-08-26T00:27:15.158Z,4.57
2022-08-26T00:29:41.908Z,4.65
2022-08-26T00:32:10.057Z,5.15
2022-08-26T00:34:37.677Z,5.22
2022-08-26T00:37:03.830Z,4.65
2022-08-26T00:39:35.271Z,4.70
2022-08-26T00:42:01.459Z,5.28
2022-08-26T00:44:28.421Z,4.43
2022-08-26T00:46:54.577Z,4.53
2022-08-26T00:49:20.784Z,4.53
2022-08-26T00:51:46.942Z,4.47
2022-08-26T00:54:13.092Z,5.25
2022-08-26T00:56:39.251Z,4.55
2022-08-26T00:59:05.401Z,4.80
2022-08-26T01:01:31.631Z,4.80
2022-08-26T01:03:57.867Z,4.43
2022-08-26T01:06:24.010Z,4.22
2022-08-26T01:08:50.151Z,4.53
2022-08-26T01:11:16.356Z,5.15
2022-08-26T01:13:42.747Z,4.38
2022-08-26T01:16:08.961Z,5.60
2022-08-26T01:18:36.732Z,5.10
2022-08-26T01:21:03.295Z,4.93
2022-08-26T01:23:29.445Z,4.60
2022-08-26T01:25:55.595Z,4.30
2022-08-26T01:28:22.003Z,4.40
2022-08-26T01:30:48.183Z,4.60
2022-08-26T01:33:14.347Z,4.90
2022-08-26T01:35:40.520Z,4.57
2022-08-26T01:38:06.700Z,4.93
2022-08-26T01:40:33.285Z,4.53
2022-08-26T01:42:59.509Z,4.38
2022-08-26T01:45:25.734Z,5.57
2022-08-26T01:47:56.999Z,4.68
2022-08-26T01:50:27.873Z,4.97
2022-08-26T01:52:56.552Z,5.22
2022-08-26T01:55:32.203Z,4.65
2022-08-26T01:57:58.794Z,6.03
2022-08-26T02:00:24.957Z,4.30
2022-08-26T02:02:53.415Z,4.78
2022-08-26T02:05:19.590Z,5.07
2022-08-26T02:07:45.741Z,4.25
2022-08-26T02:10:12.114Z,4.80
2022-08-26T02:12:38.297Z,4.50
2022-08-26T02:15:05.707Z,4.32
2022-08-26T02:17:32.070Z,4.40
2022-08-26T02:20:00.193Z,4.80
2022-08-26T02:22:26.389Z,4.65
2022-08-26T02:24:52.588Z,4.45
2022-08-26T02:27:18.764Z,4.75
2022-08-26T02:29:44.929Z,4.53
2022-08-26T02:32:11.097Z,4.60
2022-08-26T02:34:40.683Z,4.97
2022-08-26T02:37:07.768Z,4.97
2022-08-26T02:39:33.996Z,4.93
2022-08-26T02:42:00.172Z,5.35
2022-08-26T02:44:26.348Z,4.72
2022-08-26T02:46:52.538Z,4.78
2022-08-26T02:49:20.375Z,4.63
2022-08-26T02:51:46.537Z,5.40
2022-08-26T02:54:12.720Z,4.88
2022-08-26T02:56:38.901Z,4.57
2022-08-26T02:59:05.396Z,4.85
2022-08-26T03:01:31.668Z,5.10
2022-08-26T03:03:57.923Z,5.55
2022-08-26T03:06:24.076Z,5.43
2022-08-26T03:08:50.298Z,4.55
2022-08-26T03:11:16.454Z,5.30
2022-08-26T03:13:42.594Z,4.82
2022-08-26T03:16:08.865Z,4.93
2022-08-26T03:18:35.559Z,5.05
2022-08-26T03:21:01.704Z,4.57
2022-08-26T03:23:27.913Z,5.10
2022-08-26T03:25:54.839Z,5.55
2022-08-26T03:28:22.231Z,4.93
2022-08-26T03:30:48.396Z,5.40
2022-08-26T03:33:15.080Z,5.35
2022-08-26T03:35:41.243Z,4.82
2022-08-26T03:38:07.438Z,5.03
2022-08-26T03:40:33.943Z,5.00
2022-08-26T03:43:00.198Z,5.32
2022-08-26T03:45:28.256Z,5.20
2022-08-26T03:47:54.433Z,4.85
2022-08-26T03:50:24.374Z,4.95
2022-08-26T03:52:50.605Z,5.22
2022-08-26T03:55:16.780Z,4.70
2022-08-26T03:57:43.873Z,5.22
2022-08-26T04:00:10.274Z,5.07
2022-08-26T04:02:36.496Z,4.88
2022-08-26T04:05:02.693Z,4.68
2022-08-26T04:07:29.751Z,5.80
2022-08-26T04:09:58.277Z,5.20
2022-08-26T04:12:24.434Z,4.78
2022-08-26T04:14:50.710Z,5.30
2022-08-26T04:17:19.949Z,4.68
2022-08-26T04:22:24.013Z,6.00
2022-08-26T04:24:51.207Z,4.72
2022-08-26T04:27:17.791Z,5.55
2022-08-26T04:29:43.945Z,5.15
2022-08-26T04:32:10.276Z,5.82
2022-08-26T04:34:36.452Z,5.65
2022-08-26T04:37:02.624Z,4.93
2022-08-26T04:39:28.791Z,5.57
2022-08-26T04:41:54.965Z,5.50
2022-08-26T04:44:21.134Z,5.80
2022-08-26T04:46:47.778Z,6.03
2022-08-26T04:49:15.204Z,5.75
2022-08-26T04:51:41.381Z,5.60
2022-08-26T04:54:10.133Z,6.13
2022-08-26T04:56:37.571Z,5.05
2022-08-26T04:59:03.743Z,5.78
2022-08-26T05:01:33.646Z,5.78
2022-08-26T05:04:08.067Z,6.07
2022-08-26T05:06:36.940Z,6.68
2022-08-26T05:09:03.438Z,4.95
2022-08-26T05:11:29.594Z,6.28
2022-08-26T05:13:58.161Z,7.35
2022-08-26T05:16:27.932Z,5.75
2022-08-26T05:18:54.324Z,6.05
2022-08-26T05:21:20.513Z,5.15
2022-08-26T05:23:46.672Z,5.60
2022-08-26T05:26:15.643Z,5.78
2022-08-26T05:28:42.715Z,5.80
2022-08-26T05:31:08.931Z,4.97
2022-08-26T05:33:35.115Z,5.30
2022-08-26T05:36:01.312Z,5.65
2022-08-26T05:38:30.492Z,5.63
2022-08-26T05:40:56.760Z,5.32
2022-08-26T05:43:22.941Z,5.65
2022-08-26T05:45:49.103Z,5.28
2022-08-26T05:48:16.122Z,5.20
2022-08-26T05:50:42.408Z,5.00
2022-08-26T05:53:09.345Z,5.43
2022-08-26T05:55:35.737Z,5.20
2022-08-26T05:58:02.756Z,5.72
2022-08-26T06:00:29.022Z,5.47
2022-08-26T06:02:55.285Z,5.63
2022-08-26T06:05:21.459Z,6.10
2022-08-26T06:07:48.215Z,5.68
2022-08-26T06:10:31.424Z,5.53
2022-08-26T06:12:58.095Z,5.07
2022-08-26T06:15:24.333Z,5.75
2022-08-26T06:17:50.493Z,6.07
2022-08-26T06:20:16.652Z,6.10
2022-08-26T06:22:43.526Z,6.20
2022-08-26T06:25:09.896Z,6.05
2022-08-26T06:27:36.246Z,5.82
2022-08-26T06:30:02.630Z,5.88
2022-08-26T06:32:28.885Z,5.70
2022-08-26T06:34:55.582Z,5.95
2022-08-26T06:37:21.936Z,6.50
2022-08-26T06:39:48.239Z,5.75
2022-08-26T06:42:17.413Z,6.22
2022-08-26T06:44:44.687Z,6.80
2022-08-26T06:47:11.064Z,6.40
2022-08-26T06:49:37.225Z,8.38
2022-08-26T06:52:03.420Z,7.82
2022-08-26T06:54:29.615Z,7.18
2022-08-26T06:56:55.805Z,7.30
2022-08-26T06:59:22.342Z,6.93
2022-08-26T07:01:48.571Z,8.23
2022-08-26T07:04:16.038Z,7.22
2022-08-26T07:06:48.031Z,8.40
2022-08-26T07:09:14.400Z,8.55
2022-08-26T07:11:43.571Z,8.65
2022-08-26T07:14:09.778Z,7.43
2022-08-26T07:16:35.990Z,6.95
2022-08-26T07:19:03.353Z,6.75
2022-08-26T07:21:36.715Z,7.47
2022-08-26T07:24:02.926Z,7.25
2022-08-26T07:28:56.221Z,6.80
2022-08-26T07:31:22.512Z,6.60
2022-08-26T07:33:48.749Z,6.80
2022-08-26T07:36:14.974Z,6.07
2022-08-26T07:38:41.133Z,6.90
2022-08-26T07:41:08.160Z,6.32
2022-08-26T07:43:34.517Z,6.72
2022-08-26T07:46:00.830Z,6.55
2022-08-26T07:48:27.028Z,6.88
2022-08-26T07:50:53.192Z,6.65
2022-08-26T07:53:19.471Z,6.15
2022-08-26T07:55:45.674Z,5.90
2022-08-26T07:58:11.957Z,6.68
2022-08-26T08:00:38.116Z,6.78
2022-08-26T08:03:04.311Z,6.30
2022-08-26T08:05:33.315Z,7.18
2022-08-26T08:08:00.846Z,6.53
2022-08-26T08:10:48.792Z,5.97
2022-08-26T08:13:15.156Z,6.68
2022-08-26T08:15:41.367Z,7.25
2022-08-26T08:18:15.662Z,6.43
2022-08-26T08:20:44.690Z,6.82
2022-08-26T08:23:13.764Z,7.18
2022-08-26T08:25:40.565Z,6.90
2022-08-26T08:28:06.898Z,6.68
2022-08-26T08:30:34.970Z,6.75
2022-08-26T08:33:01.300Z,6.45
2022-08-26T08:35:28.056Z,6.50
2022-08-26T08:37:56.160Z,6.38
2022-08-26T08:40:23.106Z,6.70
2022-08-26T08:45:22.169Z,6.18
2022-08-26T08:47:48.619Z,5.78
2022-08-26T08:50:14.809Z,4.88
2022-08-26T08:52:41.034Z,6.38
2022-08-26T08:55:10.966Z,5.18
2022-08-26T08:57:38.878Z,5.45
2022-08-26T09:00:05.307Z,5.47
2022-08-26T09:02:31.496Z,5.38
2022-08-26T09:04:57.699Z,5.63
2022-08-26T09:07:24.554Z,5.85
2022-08-26T09:09:50.804Z,5.60
2022-08-26T09:12:17.140Z,5.68
2022-08-26T09:14:46.085Z,6.05
2022-08-26T09:17:12.340Z,6.10
2022-08-26T09:19:38.544Z,5.85
2022-08-26T09:22:08.820Z,5.55
2022-08-26T09:24:40.894Z,5.47
2022-08-26T09:27:08.396Z,5.82
2022-08-26T09:29:37.720Z,6.25
2022-08-26T09:32:03.893Z,6.15
2022-08-26T09:34:30.077Z,5.72
2022-08-26T09:36:56.261Z,6.25
2022-08-26T09:39:22.423Z,5.82
2022-08-26T09:41:48.618Z,5.75
2022-08-26T09:44:15.595Z,7.78
2022-08-26T09:46:41.914Z,6.85
2022-08-26T09:49:08.425Z,6.47
2022-08-26T09:51:34.620Z,5.95
2022-08-26T09:54:00.849Z,5.97
2022-08-26T09:56:27.540Z,6.03
2022-08-26T09:58:53.970Z,5.70
2022-08-26T10:01:20.203Z,6.85
2022-08-26T10:03:47.100Z,6.40
2022-08-26T10:06:15.184Z,6.30
2022-08-26T10:08:41.958Z,5.85
2022-08-26T10:11:10.332Z,6.25
2022-08-26T10:13:36.502Z,5.82
2022-08-26T10:16:02.650Z,5.68
2022-08-26T10:18:34.369Z,5.90
2022-08-26T10:21:00.976Z,6.13
2022-08-26T10:23:27.659Z,5.72
2022-08-26T10:25:53.878Z,6.32
2022-08-26T10:28:23.172Z,5.93
2022-08-26T10:30:49.326Z,6.00
2022-08-26T10:33:17.968Z,5.75
2022-08-26T10:35:44.430Z,6.50
2022-08-26T10:38:10.842Z,7.45
2022-08-26T10:40:37.250Z,6.15
2022-08-26T10:43:07.211Z,5.80
2022-08-26T10:45:36.283Z,5.53
2022-08-26T10:48:02.527Z,6.10
2022-08-26T10:50:28.718Z,5.70
2022-08-26T10:52:54.879Z,6.22
2022-08-26T10:55:21.073Z,6.53
2022-08-26T10:57:47.233Z,5.78
2022-08-26T11:00:13.476Z,5.40
2022-08-26T11:02:41.224Z,5.30
2022-08-26T11:05:13.412Z,5.40
2022-08-26T11:07:39.559Z,5.15
2022-08-26T11:10:05.801Z,5.60
2022-08-26T11:12:32.763Z,5.30
2022-08-26T11:14:59.405Z,5.15
2022-08-26T11:17:25.596Z,5.07
2022-08-26T11:20:01.431Z,4.75
2022-08-26T11:22:28.910Z,4.18
2022-08-26T11:24:55.066Z,4.60
2022-08-26T11:27:21.293Z,4.55
2022-08-26T11:29:47.462Z,4.30
2022-08-26T11:32:13.901Z,4.70
2022-08-26T11:34:40.084Z,4.03
2022-08-26T11:37:06.247Z,4.25
2022-08-26T11:39:36.544Z,4.63
2022-08-26T11:42:03.179Z,4.82
2022-08-26T11:44:29.345Z,5.35
2022-08-26T11:46:55.580Z,4.97
2022-08-26T11:49:21.808Z,4.88
2022-08-26T11:51:48.385Z,4.93
2022-08-26T11:54:14.624Z,4.40
2022-08-26T11:56:42.183Z,5.07
2022-08-26T11:59:08.389Z,4.70
2022-08-26T12:01:34.731Z,4.70
2022-08-26T12:04:01.101Z,5.38
2022-08-26T12:08:53.553Z,4.40
2022-08-26T12:11:19.731Z,4.70
2022-08-26T12:13:45.907Z,4.97
2022-08-26T12:16:13.216Z,4.32
2022-08-26T12:18:40.003Z,4.47
2022-08-26T12:21:06.192Z,4.32
2022-08-26T12:23:32.366Z,4.35
2022-08-26T12:25:58.563Z,4.50
2022-08-26T12:28:24.724Z,4.03
2022-08-26T12:30:50.901Z,4.03
2022-08-26T12:33:22.665Z,4.43
2022-08-26T12:35:51.559Z,4.18
2022-08-26T12:38:21.105Z,3.95
2022-08-26T12:40:47.266Z,3.92
2022-08-26T12:43:13.452Z,3.67
2022-08-26T12:45:39.639Z,4.13
2022-08-26T12:50:59.135Z,4.50
2022-08-26T12:53:25.294Z,4.25
2022-08-26T12:55:51.452Z,4.22
2022-08-26T12:58:17.651Z,4.18
2022-08-26T13:00:43.923Z,4.28
2022-08-26T13:03:10.298Z,3.60
2022-08-26T13:05:36.623Z,4.10
2022-08-26T13:08:02.801Z,4.68
2022-08-26T13:10:31.070Z,3.88
2022-08-26T13:12:57.335Z,3.65
2022-08-26T13:15:23.501Z,4.07
2022-08-26T13:17:49.698Z,4.43
2022-08-26T13:20:15.858Z,3.70
2022-08-26T13:25:13.147Z,3.55
2022-08-26T13:27:39.360Z,4.00
2022-08-26T13:30:05.533Z,3.88
2022-08-26T13:32:33.322Z,4.05
2022-08-26T13:34:59.719Z,3.95
2022-08-26T13:37:34.474Z,3.88
2022-08-26T13:40:01.591Z,4.05
2022-08-26T13:42:27.806Z,3.90
2022-08-26T13:44:53.965Z,4.03
2022-08-26T13:47:20.155Z,4.10
2022-08-26T13:49:46.341Z,4.18
2022-08-26T13:52:12.506Z,4.00
2022-08-26T13:54:38.689Z,4.22
2022-08-26T13:57:04.880Z,3.90
2022-08-26T13:59:31.058Z,3.88
2022-08-26T14:01:57.226Z,4.68
2022-08-26T14:04:27.063Z,4.38
2022-08-26T14:06:53.613Z,4.32
2022-08-26T14:09:19.815Z,4.50
2022-08-26T14:11:50.845Z,4.10
2022-08-26T14:14:20.867Z,4.10
2022-08-26T14:16:58.928Z,4.30
2022-08-26T14:19:26.436Z,4.05
2022-08-26T14:21:52.647Z,3.83
2022-08-26T14:24:18.793Z,3.88
2022-08-26T14:26:44.941Z,3.53
2022-08-26T14:29:14.627Z,4.13
2022-08-26T14:31:42.801Z,4.38
2022-08-26T14:34:08.998Z,3.65
2022-08-26T14:36:35.193Z,3.60
2022-08-26T14:39:01.377Z,4.00
2022-08-26T14:41:27.556Z,3.65
2022-08-26T14:43:53.731Z,3.55
2022-08-26T14:46:19.936Z,3.70
2022-08-26T14:48:46.139Z,3.75
2022-08-26T14:51:12.357Z,3.70
2022-08-26T14:53:38.521Z,3.70
2022-08-26T14:56:04.714Z,4.50
2022-08-26T14:58:34.951Z,3.92
2022-08-26T15:01:04.176Z,4.18
2022-08-26T15:03:30.630Z,4.35
2022-08-26T15:05:56.801Z,3.55
2022-08-26T15:08:23.016Z,3.97
2022-08-26T15:10:49.185Z,3.75
2022-08-26T15:13:15.343Z,3.63
2022-08-26T15:15:41.555Z,5.10
2022-08-26T15:18:07.920Z,4.80
2022-08-26T15:20:34.221Z,5.65
2022-08-26T15:23:03.795Z,5.18
2022-08-26T15:25:32.463Z,5.03
2022-08-26T15:27:58.646Z,6.35
2022-08-26T15:30:24.800Z,4.72
2022-08-26T15:32:50.963Z,5.35
2022-08-26T15:35:17.143Z,5.65
2022-08-26T15:37:43.354Z,5.40
2022-08-26T15:40:09.594Z,5.10
2022-08-26T15:42:35.795Z,5.65
2022-08-26T15:45:02.021Z,5.28
2022-08-26T15:47:28.225Z,5.00
2022-08-26T15:49:54.729Z,5.90
2022-08-26T15:52:20.882Z,5.78
2022-08-26T15:54:47.048Z,6.45
2022-08-26T15:57:15.308Z,5.68
2022-08-26T15:59:42.655Z,6.03
2022-08-26T16:02:08.875Z,6.25
2022-08-26T16:04:35.074Z,7.68
2022-08-26T16:07:01.262Z,6.30
2022-08-26T16:09:27.452Z,6.53
2022-08-26T16:11:53.638Z,6.38
2022-08-26T16:14:19.805Z,6.30
2022-08-26T16:16:45.958Z,6.38
2022-08-26T16:19:12.102Z,6.32
2022-08-26T16:21:38.302Z,7.00
2022-08-26T16:24:04.476Z,12.95
2022-08-26T16:26:30.637Z,9.90
2022-08-26T16:28:56.818Z,14.65
2022-08-26T16:31:23.009Z,16.92
2022-08-26T16:33:49.254Z,16.30
2022-08-26T16:36:15.400Z,17.23
2022-08-26T16:38:41.556Z,16.10
2022-08-26T16:41:07.742Z,14.55
2022-08-26T16:43:33.912Z,11.45
2022-08-26T16:46:00.127Z,10.70
2022-08-26T16:48:27.526Z,10.60
2022-08-26T16:50:53.685Z,11.52
2022-08-26T16:53:19.866Z,10.55
2022-08-26T16:55:46.049Z,11.27
2022-08-26T16:58:12.478Z,10.18
2022-08-26T17:00:38.687Z,10.85
2022-08-26T17:03:04.927Z,10.73
2022-08-26T17:05:31.081Z,11.38
2022-08-26T17:07:57.261Z,10.45
2022-08-26T17:10:23.439Z,10.75
2022-08-26T17:12:49.608Z,9.93
2022-08-26T17:15:15.767Z,11.20
2022-08-26T17:17:41.952Z,12.35
2022-08-26T17:20:08.102Z,8.90
2022-08-26T17:22:34.800Z,11.35
2022-08-26T17:25:01.033Z,10.27
2022-08-26T17:27:27.189Z,11.25
2022-08-26T17:29:53.348Z,11.20
2022-08-26T17:32:19.545Z,11.48
2022-08-26T17:34:45.707Z,14.52
2022-08-26T17:37:11.872Z,15.10
2022-08-26T17:39:38.051Z,15.13
2022-08-26T17:42:04.211Z,15.63
2022-08-26T17:44:30.390Z,14.52
2022-08-26T17:46:56.565Z,14.60
2022-08-26T17:49:22.763Z,15.73
2022-08-26T17:51:48.971Z,15.35
2022-08-26T17:54:15.199Z,15.48
2022-08-26T17:56:41.356Z,14.95
2022-08-26T17:59:07.628Z,15.25
2022-08-26T18:01:33.872Z,15.25
2022-08-26T18:04:00.952Z,14.90
2022-08-26T18:06:27.455Z,14.82
2022-08-26T18:08:53.605Z,15.88
2022-08-26T18:11:22.368Z,15.18
2022-08-26T18:13:48.543Z,14.38
2022-08-26T18:16:14.748Z,14.90
2022-08-26T18:18:40.949Z,14.48
2022-08-26T18:21:07.172Z,13.57
2022-08-26T18:23:33.359Z,13.95
2022-08-26T18:25:59.507Z,13.70
2022-08-26T18:28:25.709Z,13.93
2022-08-26T18:30:51.921Z,14.00
2022-08-26T18:33:18.111Z,13.63
2022-08-26T18:35:44.321Z,13.15
2022-08-26T18:38:11.705Z,12.63
2022-08-26T18:40:38.136Z,11.48
2022-08-26T18:43:04.323Z,12.77
2022-08-26T18:45:30.503Z,12.05
2022-08-26T18:47:56.667Z,11.82
2022-08-26T18:50:22.876Z,11.68
2022-08-26T18:52:49.032Z,11.32
2022-08-26T18:55:15.186Z,11.90
2022-08-26T18:57:41.384Z,11.52
2022-08-26T19:00:07.539Z,11.05
2022-08-26T19:02:33.767Z,10.40
2022-08-26T19:05:00.014Z,10.15
2022-08-26T19:07:26.286Z,11.13
2022-08-26T19:09:53.845Z,10.00
2022-08-26T19:12:20.360Z,10.18
2022-08-26T19:14:46.552Z,10.13
2022-08-26T19:17:12.856Z,9.55
2022-08-26T19:19:39.078Z,9.02
2022-08-26T19:22:05.302Z,9.00
2022-08-26T19:24:33.767Z,8.88
2022-08-26T19:26:59.921Z,9.02
2022-08-26T19:29:26.123Z,8.65
2022-08-26T19:31:52.354Z,8.77
2022-08-26T19:34:20.835Z,7.68
2022-08-26T19:36:47.263Z,7.53
2022-08-26T19:39:13.421Z,7.60
2022-08-26T19:41:39.635Z,7.60
2022-08-26T19:44:05.810Z,6.80
2022-08-26T19:46:32.149Z,6.88
2022-08-26T19:48:58.457Z,6.90
2022-08-26T19:51:24.636Z,7.45
2022-08-26T19:53:50.823Z,6.80
2022-08-26T19:56:17.006Z,7.05
2022-08-26T19:58:43.167Z,7.60
2022-08-26T20:01:09.424Z,7.43
2022-08-26T20:03:35.633Z,6.50
2022-08-26T20:06:01.814Z,7.07
2022-08-26T20:08:27.994Z,7.30
2022-08-26T20:10:55.918Z,6.22
2022-08-26T20:13:22.080Z,6.60
2022-08-26T20:15:49.399Z,6.57
2022-08-26T20:18:15.600Z,7.20
2022-08-26T20:20:44.804Z,7.65
2022-08-26T20:23:10.993Z,6.53
2022-08-26T20:25:37.172Z,7.03
2022-08-26T20:28:03.379Z,6.28
2022-08-26T20:30:29.577Z,7.70
2022-08-26T20:32:55.767Z,7.05
2022-08-26T20:35:21.920Z,7.93
2022-08-26T20:37:48.125Z,7.22
2022-08-26T20:40:14.361Z,8.50
2022-08-26T20:42:40.572Z,8.35
2022-08-26T20:45:06.714Z,9.35
2022-08-26T20:47:32.887Z,8.57
2022-08-26T20:49:59.092Z,9.70
2022-08-26T20:52:25.274Z,9.27
2022-08-26T20:54:51.486Z,9.23
2022-08-26T20:57:17.663Z,8.40
2022-08-26T20:59:43.860Z,9.02
2022-08-26T21:02:10.071Z,8.90
2022-08-26T21:04:36.272Z,8.98
2022-08-26T21:07:02.509Z,9.85
2022-08-26T21:09:29.086Z,8.63
2022-08-26T21:11:56.931Z,9.13
2022-08-26T21:14:23.111Z,10.38
2022-08-26T21:16:52.245Z,9.23
2022-08-26T21:19:18.424Z,9.23
2022-08-26T21:21:44.611Z,9.68
2022-08-26T21:24:10.781Z,10.43
2022-08-26T21:26:36.961Z,10.15
2022-08-26T21:29:03.161Z,9.30
2022-08-26T21:31:29.349Z,11.25
2022-08-26T21:33:55.569Z,10.10
2022-08-26T21:36:21.810Z,10.23
2022-08-26T21:38:47.994Z,10.68
2022-08-26T21:41:14.125Z,11.60
2022-08-26T21:43:40.294Z,11.82
2022-08-26T21:46:06.568Z,11.35
2022-08-26T21:48:34.529Z,11.25
2022-08-26T21:51:00.926Z,11.35
2022-08-26T21:53:27.078Z,10.70
2022-08-26T21:55:53.280Z,10.05
2022-08-26T21:58:19.443Z,10.55
2022-08-26T22:00:45.654Z,10.23
2022-08-26T22:03:11.847Z,10.13
2022-08-26T22:05:38.008Z,8.23
2022-08-26T22:08:04.164Z,8.60
2022-08-26T22:10:30.353Z,8.98
2022-08-26T22:12:56.533Z,8.82
2022-08-26T22:15:22.697Z,9.07
2022-08-26T22:17:48.856Z,10.43
2022-08-26T22:20:16.609Z,8.88
2022-08-26T22:22:43.031Z,9.35
2022-08-26T22:25:09.294Z,8.63
2022-08-26T22:27:35.460Z,9.40
2022-08-26T22:30:08.960Z,9.27
2022-08-26T22:32:37.922Z,9.43
2022-08-26T22:35:04.117Z,9.95
2022-08-26T22:37:50.248Z,9.23
2022-08-26T22:40:16.475Z,10.57
2022-08-26T22:42:42.677Z,10.10
2022-08-26T22:45:21.713Z,9.70
2022-08-26T22:47:47.972Z,9.98
2022-08-26T22:50:14.182Z,9.45
2022-08-26T22:52:40.351Z,9.07
2022-08-26T22:55:06.521Z,9.38
2022-08-26T22:57:32.704Z,8.85
2022-08-26T22:59:58.859Z,10.05
2022-08-26T23:02:25.014Z,9.27
2022-08-26T23:04:51.194Z,9.95
2022-08-26T23:07:17.384Z,9.15
2022-08-26T23:09:43.565Z,9.20
2022-08-26T23:12:09.732Z,10.10
2022-08-26T23:14:35.913Z,9.30
2022-08-26T23:17:02.145Z,9.07
2022-08-26T23:19:28.332Z,8.75
2022-08-26T23:21:54.500Z,9.32
2022-08-26T23:24:20.690Z,9.57
2022-08-26T23:26:46.845Z,9.50
2022-08-26T23:29:13.014Z,9.07
2022-08-26T23:31:39.248Z,10.65
2022-08-26T23:34:05.488Z,9.90
2022-08-26T23:36:31.672Z,9.63
2022-08-26T23:39:01.192Z,9.30
2022-08-26T23:41:27.410Z,9.80
2022-08-26T23:43:53.596Z,9.73
2022-08-26T23:46:19.760Z,11.15
2022-08-26T23:48:45.950Z,9.73
2022-08-26T23:51:12.130Z,10.65
2022-08-26T23:53:38.296Z,10.35
2022-08-26T23:56:04.453Z,11.30
2022-08-26T23:58:30.671Z,10.85
